Time;durP1;ratioP1;P1;durP2;ratioP2;P2;SDS_P1;SDS_P2;PMS_P1;PMS_P2;Temp;Humidity;BMP_temperature;BMP_pressure;BME280_temperature;BME280_humidity;BME280_pressure;Samples;Min_cycle;Max_cycle;Signal;HPM_P1;HPM_P2
2022/12/02 00:02:31;;;;;;;35.90;26.80;;;;;;;2.29;100.00;97805.67;107585;1263;59652;-72
2022/12/02 00:05:33;;;;;;;37.20;29.20;;;;;;;2.30;100.00;97805.49;107621;1267;71382;-72
2022/12/02 00:08:15;;;;;;;37.60;28.30;;;;;;;2.30;100.00;97804.13;107567;1262;69218;-72
2022/12/02 00:10:45;;;;;;;71.30;48.10;;;;;;;2.29;100.00;97805.36;107670;1266;69225;-73
2022/12/02 00:13:25;;;;;;;49.50;36.30;;;;;;;2.25;100.00;97806.01;107713;1267;59703;-72
2022/12/02 00:15:59;;;;;;;55.60;36.20;;;;;;;2.20;100.00;97811.67;107816;1266;59655;-72
2022/12/02 00:18:30;;;;;;;44.70;31.60;;;;;;;2.17;100.00;97811.27;107605;1267;70442;-72
2022/12/02 00:20:59;;;;;;;42.90;29.80;;;;;;;2.11;100.00;97810.23;107706;1263;68248;-72
2022/12/02 00:23:28;;;;;;;39.10;28.60;;;;;;;2.11;100.00;97813.34;107636;1266;69858;-72
2022/12/02 00:25:58;;;;;;;37.20;29.40;;;;;;;2.12;100.00;97813.30;107779;1266;59734;-72
2022/12/02 00:28:27;;;;;;;45.30;29.90;;;;;;;2.13;100.00;97812.77;107604;1262;59706;-72
2022/12/02 00:30:57;;;;;;;40.20;28.60;;;;;;;2.16;100.00;97813.02;107781;1267;71362;-72
2022/12/02 00:33:25;;;;;;;37.30;28.30;;;;;;;2.19;100.00;97816.89;107541;1266;69166;-72
2022/12/02 00:35:55;;;;;;;43.30;30.40;;;;;;;2.21;100.00;97816.83;107619;1267;69266;-72
2022/12/02 00:38:25;;;;;;;43.20;30.00;;;;;;;2.22;100.00;97818.66;107679;1266;59708;-72
2022/12/02 00:40:54;;;;;;;43.20;31.20;;;;;;;2.22;100.00;97817.61;107703;1262;59648;-72
2022/12/02 00:46:31;;;;;;;36.20;25.00;;;;;;;2.24;100.00;97811.21;107676;1266;68646;-72
2022/12/02 00:49:14;;;;;;;44.40;33.90;;;;;;;2.25;100.00;97809.08;107602;1263;69955;-72
2022/12/02 00:51:45;;;;;;;66.40;45.20;;;;;;;2.25;100.00;97808.05;107615;1267;59713;-71
2022/12/02 00:54:14;;;;;;;55.90;39.50;;;;;;;2.23;100.00;97812.10;107596;1257;60596;-71
2022/12/02 00:56:45;;;;;;;57.20;41.20;;;;;;;2.21;100.00;97815.09;107642;1267;71375;-71
2022/12/02 00:59:14;;;;;;;56.70;40.00;;;;;;;2.19;100.00;97815.66;107685;1266;69064;-71
2022/12/02 01:01:45;;;;;;;69.70;48.10;;;;;;;2.17;100.00;97814.71;107591;1267;69946;-71
2022/12/02 01:04:14;;;;;;;75.10;49.30;;;;;;;2.12;100.00;97811.27;107581;1266;59701;-71
2022/12/02 01:06:43;;;;;;;79.00;48.80;;;;;;;2.07;100.00;97809.54;107586;1262;59681;-71
2022/12/02 01:09:12;;;;;;;59.00;40.80;;;;;;;2.01;100.00;97811.76;107637;1262;72011;-71
2022/12/02 01:11:42;;;;;;;52.50;38.10;;;;;;;1.99;100.00;97810.30;107720;1266;68467;-73
2022/12/02 01:14:12;;;;;;;66.20;45.10;;;;;;;2.00;100.00;97812.32;107880;1266;69910;-73
2022/12/02 01:16:42;;;;;;;51.80;34.90;;;;;;;2.01;100.00;97804.57;107670;1266;59760;-72
2022/12/02 01:19:12;;;;;;;70.70;48.30;;;;;;;2.01;100.00;97805.40;107861;1263;59679;-72
2022/12/02 01:21:41;;;;;;;69.00;49.60;;;;;;;2.02;100.00;97803.31;107689;1263;72017;-72
2022/12/02 01:24:10;;;;;;;82.40;56.90;;;;;;;2.04;100.00;97803.59;107668;1266;69803;-71
2022/12/02 01:26:40;;;;;;;62.10;45.00;;;;;;;2.07;100.00;97805.05;107631;1262;69225;-72
2022/12/02 01:29:09;;;;;;;59.00;43.30;;;;;;;2.11;100.00;97807.52;107648;1270;59693;-72
2022/12/02 01:31:39;;;;;;;75.00;51.80;;;;;;;2.13;100.00;97803.50;107648;1266;59752;-72
2022/12/02 01:34:09;;;;;;;69.80;50.50;;;;;;;2.14;100.00;97802.26;107874;1266;70913;-71
2022/12/02 01:36:39;;;;;;;79.80;54.80;;;;;;;2.16;100.00;97802.35;107834;1267;69141;-72
2022/12/02 01:39:09;;;;;;;80.30;57.60;;;;;;;2.17;100.00;97799.40;107839;1266;67716;-71
2022/12/02 01:41:39;;;;;;;69.10;49.30;;;;;;;2.18;100.00;97796.11;107736;1266;59655;-71
2022/12/02 01:44:10;;;;;;;75.30;53.50;;;;;;;2.18;100.00;97797.80;106966;1263;863900;-72
2022/12/02 01:46:41;;;;;;;67.80;49.40;;;;;;;2.20;100.00;97794.83;107608;1266;71371;-72
2022/12/02 01:49:10;;;;;;;74.00;52.50;;;;;;;2.22;100.00;97792.85;107667;1266;69227;-71
2022/12/02 01:51:40;;;;;;;73.70;51.10;;;;;;;2.24;100.00;97790.05;107655;1267;69252;-72
2022/12/02 01:54:10;;;;;;;75.10;51.50;;;;;;;2.25;100.00;97790.16;107781;1267;59758;-71
2022/12/02 01:56:40;;;;;;;83.80;58.50;;;;;;;2.26;100.00;97786.35;107676;1267;59696;-71
2022/12/02 01:59:12;;;;;;;76.70;53.70;;;;;;;2.27;100.00;97784.27;107638;1270;69737;-71
2022/12/02 02:01:42;;;;;;;73.90;51.20;;;;;;;2.27;100.00;97783.24;107644;1270;69836;-71
2022/12/02 02:04:11;;;;;;;59.70;41.80;;;;;;;2.26;100.00;97783.59;107522;1263;68229;-72
2022/12/02 02:06:42;;;;;;;57.10;40.20;;;;;;;2.26;100.00;97784.12;107589;1263;59724;-72
2022/12/02 02:09:13;;;;;;;43.70;32.20;;;;;;;2.26;100.00;97785.84;107667;1267;59738;-72
2022/12/02 02:11:43;;;;;;;57.80;41.20;;;;;;;2.27;100.00;97789.45;107760;1263;70581;-72
2022/12/02 02:14:13;;;;;;;49.90;36.40;;;;;;;2.27;100.00;97786.00;107690;1266;68983;-72
2022/12/02 02:16:43;;;;;;;47.80;34.20;;;;;;;2.28;100.00;97786.11;107621;1267;69263;-72
2022/12/02 02:19:16;;;;;;;42.90;31.20;;;;;;;2.29;100.00;97785.55;107623;1266;59726;-72
2022/12/02 02:21:50;;;;;;;57.90;40.50;;;;;;;2.31;100.00;97788.44;107633;1263;59696;-71
2022/12/02 02:24:23;;;;;;;71.70;47.80;;;;;;;2.27;100.00;97788.55;107597;1263;70788;-71
2022/12/02 02:26:54;;;;;;;82.50;53.90;;;;;;;2.25;100.00;97789.82;107645;1262;68506;-71
2022/12/02 02:29:23;;;;;;;66.90;46.50;;;;;;;2.24;100.00;97787.83;107639;1265;69736;-71
2022/12/02 02:31:54;;;;;;;64.00;46.30;;;;;;;2.21;100.00;97785.52;107660;1266;59816;-71
2022/12/02 02:34:24;;;;;;;63.30;44.50;;;;;;;2.20;100.00;97785.89;107616;1263;59744;-72
2022/12/02 02:36:55;;;;;;;55.80;38.90;;;;;;;2.19;100.00;97784.20;107634;1263;71263;-72
2022/12/02 02:39:24;;;;;;;;;;;;;;;2.20;100.00;97786.05;107669;1266;69852;-72
2022/12/02 02:41:56;;;;;;;45.90;30.20;;;;;;;2.20;100.00;97785.89;107620;1263;69236;-72
2022/12/02 02:44:28;;;;;;;40.50;29.60;;;;;;;2.18;100.00;97785.97;107661;1266;59847;-72
2022/12/02 02:47:00;;;;;;;39.50;29.20;;;;;;;2.17;100.00;97784.95;107672;1262;59763;-72
2022/12/02 02:49:30;;;;;;;44.50;30.60;;;;;;;2.16;100.00;97786.69;107737;1266;70398;-72
2022/12/02 02:52:01;;;;;;;40.60;30.30;;;;;;;2.16;100.00;97786.35;107735;1263;69280;-72
2022/12/02 02:54:31;;;;;;;;;;;;;;;2.17;100.00;97789.77;107610;1267;68383;-72
2022/12/02 02:57:02;;;;;;;37.10;27.90;;;;;;;2.16;100.00;97790.47;107654;1267;59742;-71
2022/12/02 02:59:33;;;;;;;43.70;30.10;;;;;;;2.16;100.00;97790.31;107663;1262;59689;-72
2022/12/02 03:02:08;;;;;;;43.60;29.70;;;;;;;2.16;100.00;97789.95;107663;1268;70608;-71
2022/12/02 03:04:40;;;;;;;43.30;30.10;;;;;;;2.17;100.00;97793.21;107646;1267;69818;-72
2022/12/02 03:07:12;;;;;;;49.00;32.50;;;;;;;2.18;100.00;97796.28;107631;1266;68458;-72
2022/12/02 03:09:43;;;;;;;51.00;36.20;;;;;;;2.18;100.00;97796.80;107660;1268;59735;-72
2022/12/02 03:12:15;;;;;;;51.60;37.00;;;;;;;2.19;100.00;97794.67;107723;1263;61088;-72
2022/12/02 03:14:47;;;;;;;48.10;30.00;;;;;;;2.19;100.00;97798.30;107722;1266;71406;-72
2022/12/02 03:17:17;;;;;;;41.20;30.00;;;;;;;2.20;100.00;97799.14;107690;1267;69064;-71
2022/12/02 03:19:47;;;;;;;64.30;43.80;;;;;;;2.19;100.00;97798.30;107635;1267;69129;-72
2022/12/02 03:22:18;;;;;;;62.50;42.00;;;;;;;2.17;100.00;97797.67;107905;1267;59722;-71
2022/12/02 03:24:47;;;;;;;53.60;38.10;;;;;;;2.14;100.00;97795.21;107954;1262;59741;-71
2022/12/02 03:27:17;;;;;;;;;;;;;;;2.10;100.00;97792.91;107624;1265;71221;-71
2022/12/02 03:29:48;;;;;;;52.90;39.00;;;;;;;2.09;100.00;97793.98;107826;1267;69165;-71
2022/12/02 03:32:19;;;;;;;66.60;46.00;;;;;;;2.09;100.00;97793.83;107640;1263;68501;-71
2022/12/02 03:34:49;;;;;;;;;;;;;;;2.09;100.00;97795.73;107755;1262;59759;-71
2022/12/02 03:37:19;;;;;;;53.50;33.30;;;;;;;2.07;100.00;97798.01;107599;1263;59722;-71
2022/12/02 03:39:50;;;;;;;45.50;32.70;;;;;;;2.06;100.00;97796.33;107722;1262;71408;-71
2022/12/02 03:42:20;;;;;;;48.30;30.80;;;;;;;2.06;100.00;97795.46;107630;1263;69794;-71
2022/12/02 03:44:51;;;;;;;48.10;32.60;;;;;;;2.07;100.00;97794.73;107615;1262;69246;-71
2022/12/02 03:47:21;;;;;;;48.80;33.10;;;;;;;2.07;100.00;97794.73;107642;1266;59728;-71
2022/12/02 03:49:53;;;;;;;45.10;31.00;;;;;;;2.08;100.00;97795.39;107618;1263;59732;-71
2022/12/02 03:52:23;;;;;;;51.30;33.40;;;;;;;2.10;100.00;97795.17;107714;1267;70850;-71
2022/12/02 03:54:54;;;;;;;48.20;34.20;;;;;;;2.12;100.00;97793.38;107765;1266;69142;-71
2022/12/02 03:57:25;;;;;;;46.20;33.10;;;;;;;2.12;100.00;97794.58;107737;1263;68685;-71
2022/12/02 03:59:55;;;;;;;45.20;31.10;;;;;;;2.14;100.00;97791.77;107831;1267;59781;-72
2022/12/02 04:02:24;;;;;;;49.70;32.00;;;;;;;2.15;100.00;97791.73;107748;1263;59710;-72
2022/12/02 04:04:54;;;;;;;44.80;33.60;;;;;;;2.16;100.00;97791.68;107822;1262;72090;-72
2022/12/02 04:07:24;;;;;;;47.00;32.60;;;;;;;2.17;100.00;97790.09;107729;1263;69715;-72
2022/12/02 04:09:53;;;;;;;45.10;30.90;;;;;;;2.19;100.00;97786.27;107886;1263;68367;-71
2022/12/02 04:12:23;;;;;;;45.90;31.20;;;;;;;2.20;100.00;97785.20;107783;1263;59701;-72
2022/12/02 04:14:53;;;;;;;42.30;29.50;;;;;;;2.21;100.00;97786.70;107578;1262;59782;-72
2022/12/02 04:17:23;;;;;;;43.70;30.60;;;;;;;2.20;100.00;97788.45;107691;1260;69590;-71
2022/12/02 04:19:54;;;;;;;43.90;32.60;;;;;;;2.20;100.00;97792.58;107597;1262;69132;-71
2022/12/02 04:22:24;;;;;;;46.40;32.20;;;;;;;2.21;100.00;97787.73;107718;1262;69734;-71
2022/12/02 04:24:57;;;;;;;42.80;30.50;;;;;;;2.26;100.00;97791.88;107616;1266;59687;-71
2022/12/02 04:27:27;;;;;;;40.40;30.00;;;;;;;2.28;100.00;97793.88;107600;1267;59656;-71
2022/12/02 04:29:57;;;;;;;38.00;28.80;;;;;;;2.28;100.00;97794.05;107664;1263;71378;-71
2022/12/02 04:32:26;;;;;;;43.10;30.80;;;;;;;2.27;100.00;97797.69;107642;1262;68982;-71
2022/12/02 04:34:55;;;;;;;39.50;29.60;;;;;;;2.26;100.00;97799.93;107657;1263;69055;-71
2022/12/02 04:37:24;;;;;;;45.20;31.70;;;;;;;2.27;100.00;97802.51;107662;1270;59683;-71
2022/12/02 04:39:54;;;;;;;44.30;31.70;;;;;;;2.26;100.00;97804.77;107604;1262;59708;-71
2022/12/02 04:42:23;;;;;;;44.50;31.00;;;;;;;2.26;100.00;97805.29;107617;1263;71727;-71
2022/12/02 04:44:54;;;;;;;43.10;29.80;;;;;;;2.26;100.00;97807.70;107620;1262;68724;-71
2022/12/02 04:47:24;;;;;;;43.60;31.50;;;;;;;2.25;100.00;97807.35;107688;1263;68701;-71
2022/12/02 04:49:53;;;;;;;44.70;31.90;;;;;;;2.26;100.00;97806.14;107674;1266;59757;-71
2022/12/02 04:52:22;;;;;;;43.10;31.40;;;;;;;2.27;100.00;97809.38;107642;1267;59778;-71
2022/12/02 04:54:52;;;;;;;49.10;33.50;;;;;;;2.27;100.00;97809.04;107588;1266;71364;-70
2022/12/02 04:57:21;;;;;;;44.50;29.70;;;;;;;2.28;100.00;97810.20;107596;1266;69002;-71
2022/12/02 04:59:59;;;;;;;39.80;27.70;;;;;;;2.29;100.00;97810.16;107661;1266;69581;-71
2022/12/02 05:02:27;;;;;;;42.80;31.10;;;;;;;2.29;100.00;97809.30;107613;1263;59791;-71
2022/12/02 05:04:57;;;;;;;43.30;29.40;;;;;;;2.29;100.00;97813.77;107796;1266;59762;-71
2022/12/02 05:07:26;;;;;;;39.40;24.60;;;;;;;2.28;100.00;97814.66;107847;1267;71999;-71
2022/12/02 05:09:55;;;;;;;53.30;35.30;;;;;;;2.28;100.00;97817.96;107856;1266;70172;-71
2022/12/02 05:12:24;;;;;;;61.10;41.30;;;;;;;2.27;100.00;97821.06;107811;1267;69635;-71
2022/12/02 05:14:53;;;;;;;69.00;43.90;;;;;;;2.27;100.00;97823.31;107768;1267;60701;-71
2022/12/02 05:17:22;;;;;;;74.50;49.70;;;;;;;2.26;100.00;97821.10;107773;1263;59699;-71
2022/12/02 05:19:52;;;;;;;56.50;39.00;;;;;;;2.24;100.00;97823.73;107824;1262;71990;-71
2022/12/02 05:22:22;;;;;;;47.80;34.00;;;;;;;2.19;100.00;97825.45;107792;1266;69211;-71
2022/12/02 05:24:51;;;;;;;54.90;36.30;;;;;;;2.17;100.00;97825.01;107776;1262;67430;-71
2022/12/02 05:27:21;;;;;;;59.20;40.00;;;;;;;2.14;100.00;97825.81;107798;1267;59761;-71
2022/12/02 05:29:50;;;;;;;56.00;39.10;;;;;;;2.12;100.00;97830.33;107765;1266;59668;-71
2022/12/02 05:32:20;;;;;;;52.20;37.80;;;;;;;2.11;100.00;97831.57;107644;1263;70758;-71
2022/12/02 05:34:49;;;;;;;57.70;39.90;;;;;;;2.12;100.00;97832.04;107658;1263;69119;-71
2022/12/02 05:37:20;;;;;;;58.50;41.90;;;;;;;2.13;100.00;97836.35;107590;1267;69251;-71
2022/12/02 05:39:50;;;;;;;54.40;38.30;;;;;;;2.13;100.00;97836.34;107570;1262;59806;-71
2022/12/02 05:42:19;;;;;;;61.20;42.80;;;;;;;2.14;100.00;97834.25;107605;1263;59780;-70
2022/12/02 05:44:48;;;;;;;58.90;40.30;;;;;;;2.14;100.00;97836.64;107667;1266;71540;-71
2022/12/02 05:47:17;;;;;;;73.50;47.50;;;;;;;2.15;100.00;97834.38;107722;1266;69166;-72
2022/12/02 05:49:47;;;;;;;74.90;48.10;;;;;;;2.15;100.00;97833.69;107616;1266;69905;-71
2022/12/02 05:52:27;;;;;;;62.00;42.50;;;;;;;2.16;100.00;97834.83;107620;1267;59709;-71
2022/12/02 05:54:58;;;;;;;57.30;39.30;;;;;;;2.16;100.00;97834.00;107590;1262;59645;-70
2022/12/02 05:57:30;;;;;;;60.00;42.10;;;;;;;2.15;100.00;97833.49;107600;1266;71904;-71
2022/12/02 06:00:08;;;;;;;57.40;40.20;;;;;;;2.15;100.00;97835.06;107717;1262;69036;-71
2022/12/02 06:02:45;;;;;;;51.30;35.80;;;;;;;2.16;100.00;97835.89;107575;1263;68488;-71
2022/12/02 06:05:22;;;;;;;69.80;43.80;;;;;;;2.18;100.00;97838.59;107604;1266;59681;-71
2022/12/02 06:07:58;;;;;;;64.30;44.40;;;;;;;2.18;100.00;97838.41;107590;1266;59741;-71
2022/12/02 06:10:32;;;;;;;62.60;41.80;;;;;;;2.18;100.00;97843.23;107622;1263;71218;-71
2022/12/02 06:13:13;;;;;;;61.10;43.10;;;;;;;2.18;100.00;97838.91;107680;1266;69698;-72
2022/12/02 06:15:42;;;;;;;66.20;44.60;;;;;;;2.20;100.00;97842.99;107645;1262;69296;-72
2022/12/02 06:18:14;;;;;;;70.00;45.50;;;;;;;2.22;100.00;97846.01;107981;1266;59762;-71
2022/12/02 06:20:45;;;;;;;62.10;42.60;;;;;;;2.24;100.00;97845.45;107746;1262;59704;-71
2022/12/02 06:23:17;;;;;;;62.20;41.90;;;;;;;2.25;100.00;97847.44;107868;1262;71359;-72
2022/12/02 06:25:50;;;;;;;64.70;43.80;;;;;;;2.28;100.00;97846.16;107822;1262;69209;-71
2022/12/02 06:28:21;;;;;;;68.00;44.40;;;;;;;2.30;100.00;97850.52;107723;1266;69821;-71
2022/12/02 06:30:55;;;;;;;64.90;42.60;;;;;;;2.33;100.00;97854.77;107698;1268;59786;-70
2022/12/02 06:33:36;;;;;;;69.50;46.10;;;;;;;2.32;100.00;97854.98;107849;1266;59751;-71
2022/12/02 06:36:20;;;;;;;67.10;44.90;;;;;;;2.33;100.00;97855.28;107682;1266;70602;-71
2022/12/02 06:38:55;;;;;;;66.00;44.60;;;;;;;2.35;100.00;97856.59;107757;1263;69759;-70
2022/12/02 06:41:29;;;;;;;65.00;46.70;;;;;;;2.35;100.00;97855.20;107741;1266;69207;-70
2022/12/02 06:46:59;;;;;;;64.80;44.30;;;;;;;2.42;100.00;97859.46;107638;1263;59703;-71
2022/12/02 06:49:39;;;;;;;69.00;46.20;;;;;;;2.46;100.00;97860.02;107698;1262;71348;-72
2022/12/02 06:52:22;;;;;;;57.70;39.80;;;;;;;2.51;100.00;97859.65;107683;1263;69062;-72
2022/12/02 06:54:51;;;;;;;52.20;35.50;;;;;;;2.59;100.00;97860.30;107807;1270;68545;-71
2022/12/02 06:57:20;;;;;;;51.60;35.20;;;;;;;2.65;100.00;97862.81;107940;1267;59737;-70
2022/12/02 06:59:51;;;;;;;59.80;42.20;;;;;;;2.71;100.00;97862.10;107891;1263;59687;-69
2022/12/02 07:02:27;;;;;;;;;;;;;;;2.75;100.00;97865.92;107749;1266;72385;-70
2022/12/02 07:04:57;;;;;;;60.50;42.10;;;;;;;2.78;100.00;97862.19;107754;1266;68389;-70
2022/12/02 07:07:31;;;;;;;;;;;;;;;2.82;100.00;97860.16;107776;1262;68467;-70
2022/12/02 07:10:04;;;;;;;56.60;39.60;;;;;;;2.88;100.00;97861.53;107610;1263;59693;-70
2022/12/02 07:12:41;;;;;;;49.80;35.80;;;;;;;2.93;100.00;97862.70;107639;1262;59789;-70
2022/12/02 07:15:25;;;;;;;56.80;40.60;;;;;;;2.99;100.00;97865.41;107648;1263;71951;-70
2022/12/02 07:17:59;;;;;;;54.20;38.20;;;;;;;3.04;100.00;97867.98;107609;1262;69095;-70
2022/12/02 07:20:33;;;;;;;58.20;40.80;;;;;;;3.12;100.00;97867.05;107778;1263;69228;-70
2022/12/02 07:23:21;;;;;;;55.70;38.10;;;;;;;3.16;100.00;97867.59;107726;1258;59696;-71
2022/12/02 07:25:55;;;;;;;51.00;36.00;;;;;;;3.25;100.00;97871.73;107638;1267;59658;-70
2022/12/02 07:28:30;;;;;;;49.80;34.90;;;;;;;3.34;100.00;97870.19;107785;1266;72361;-70
2022/12/02 07:31:02;;;;;;;50.60;36.80;;;;;;;3.44;100.00;97869.84;107739;1267;69645;-70
2022/12/02 07:33:30;;;;;;;48.60;32.70;;;;;;;3.53;100.00;97872.77;107730;1266;69180;-70
2022/12/02 07:35:59;;;;;;;64.00;44.20;;;;;;;3.61;100.00;97871.83;107768;1262;59736;-70
2022/12/02 07:38:28;;;;;;;67.30;45.60;;;;;;;3.64;100.00;97868.92;107574;1266;59740;-70
2022/12/02 07:41:18;;;;;;;73.30;52.60;;;;;;;3.73;100.00;97870.13;107681;1263;71884;-70
2022/12/02 07:43:47;;;;;;;65.50;46.70;;;;;;;3.78;100.00;97869.40;107659;1262;68679;-70
2022/12/02 07:46:16;;;;;;;66.50;46.60;;;;;;;3.88;100.00;97868.53;107681;1267;68547;-70
2022/12/02 07:48:44;;;;;;;76.50;54.70;;;;;;;3.95;100.00;97871.36;107869;1266;59703;-70
2022/12/02 07:51:13;;;;;;;66.00;49.20;;;;;;;4.00;100.00;97873.92;107656;1263;59700;-70
2022/12/02 07:53:42;;;;;;;65.30;48.90;;;;;;;4.05;100.00;97872.67;107610;1266;69878;-70
2022/12/02 07:56:10;;;;;;;70.00;53.00;;;;;;;4.11;100.00;97877.98;107665;1267;68583;-69
2022/12/02 07:58:39;;;;;;;71.50;50.30;;;;;;;4.20;100.00;97875.02;107675;1262;68444;-69
2022/12/02 08:01:28;;;;;;;53.80;39.80;;;;;;;4.28;100.00;97876.06;107575;1266;59766;-69
2022/12/02 08:03:57;;;;;;;51.40;37.10;;;;;;;4.43;100.00;97880.84;107628;1263;59776;-70
2022/12/02 08:06:26;;;;;;;52.70;38.50;;;;;;;4.55;100.00;97883.80;107660;1262;70958;-70
2022/12/02 08:08:54;;;;;;;50.00;37.50;;;;;;;4.65;100.00;97879.40;107755;1266;69290;-69
2022/12/02 08:11:23;;;;;;;58.30;43.40;;;;;;;4.68;99.16;97881.73;107680;1267;69286;-69
2022/12/02 08:13:52;;;;;;;54.60;38.70;;;;;;;4.73;98.49;97883.08;107659;1266;59715;-69
2022/12/02 08:16:21;;;;;;;57.00;40.00;;;;;;;4.80;98.13;97887.22;107671;1267;59741;-69
2022/12/02 08:18:50;;;;;;;52.20;37.30;;;;;;;4.83;97.16;97884.67;107711;1264;71518;-70
2022/12/02 08:21:19;;;;;;;52.80;36.30;;;;;;;4.91;96.21;97886.63;107657;1266;69947;-69
2022/12/02 08:23:47;;;;;;;54.40;38.90;;;;;;;5.06;97.03;97884.04;107611;1266;69561;-69
2022/12/02 08:26:16;;;;;;;49.30;35.80;;;;;;;5.17;95.94;97882.38;107674;1267;59817;-69
2022/12/02 08:28:45;;;;;;;41.60;30.30;;;;;;;5.32;94.95;97881.19;107736;1266;59649;-69
2022/12/02 08:31:21;;;;;;;36.90;28.70;;;;;;;5.48;92.39;97878.44;107741;1266;71962;-70
2022/12/02 08:33:51;;;;;;;34.00;25.10;;;;;;;5.71;92.39;97876.33;107633;1267;70237;-69
2022/12/02 08:36:21;;;;;;;27.00;20.90;;;;;;;6.11;92.64;97875.89;107571;1266;69925;-69
2022/12/02 08:38:49;;;;;;;30.50;24.30;;;;;;;6.52;91.73;97876.84;107621;1262;59760;-68
2022/12/02 08:41:18;;;;;;;30.60;24.40;;;;;;;6.91;85.57;97870.77;107589;1267;59694;-68
2022/12/02 08:43:47;;;;;;;25.50;20.50;;;;;;;7.26;82.42;97868.21;107652;1268;71864;-69
2022/12/02 08:46:16;;;;;;;27.20;21.00;;;;;;;7.43;81.62;97862.17;107669;1266;69823;-69
2022/12/02 08:48:45;;;;;;;24.70;19.50;;;;;;;7.57;79.35;97863.16;107726;1267;69295;-69
2022/12/02 08:51:13;;;;;;;22.90;16.60;;;;;;;7.89;77.94;97863.33;107666;1262;59692;-68
2022/12/02 08:53:43;;;;;;;21.30;17.30;;;;;;;7.63;76.21;97857.83;107717;1267;59743;-69
2022/12/02 08:56:12;;;;;;;17.90;14.70;;;;;;;7.51;77.03;97859.33;107803;1263;70789;-68
2022/12/02 08:58:40;;;;;;;22.00;16.10;;;;;;;7.57;77.37;97858.48;107699;1263;69298;-67
2022/12/02 09:01:09;;;;;;;19.50;15.40;;;;;;;7.54;78.64;97859.30;107720;1263;69441;-67
2022/12/02 09:03:38;;;;;;;19.80;16.70;;;;;;;7.44;78.85;97854.46;107673;1266;59829;-67
2022/12/02 09:06:07;;;;;;;22.70;15.80;;;;;;;7.40;79.01;97855.55;107866;1262;59612;-68
2022/12/02 09:08:36;;;;;;;20.70;17.50;;;;;;;7.42;81.20;97856.13;107797;1266;72043;-68
2022/12/02 09:11:05;;;;;;;22.00;18.00;;;;;;;7.40;79.62;97855.02;107633;1266;69837;-68
2022/12/02 09:13:34;;;;;;;20.10;16.30;;;;;;;7.36;81.14;97854.20;107934;1266;68731;-68
2022/12/02 09:16:03;;;;;;;21.40;18.00;;;;;;;7.44;80.06;97849.28;107818;1266;59774;-68
2022/12/02 09:18:32;;;;;;;21.30;17.40;;;;;;;7.23;80.36;97856.80;107806;1267;59764;-69
2022/12/02 09:21:01;;;;;;;21.90;17.10;;;;;;;7.19;80.82;97855.27;107819;1267;70863;-68
2022/12/02 09:23:30;;;;;;;18.70;15.70;;;;;;;7.09;80.94;97854.91;107850;1263;69834;-67
2022/12/02 09:25:58;;;;;;;18.80;13.40;;;;;;;7.02;79.80;97849.56;107799;1263;69108;-67
2022/12/02 09:28:29;;;;;;;19.70;16.10;;;;;;;6.85;80.09;97850.25;107778;1263;59757;-67
2022/12/02 09:30:57;;;;;;;19.70;14.80;;;;;;;6.78;80.18;97847.11;107806;1269;59771;-68
2022/12/02 09:33:26;;;;;;;17.60;14.30;;;;;;;6.55;81.03;97845.88;107876;1263;70721;-69
2022/12/02 09:36:01;;;;;;;18.30;14.70;;;;;;;6.46;81.94;97839.73;107809;1266;68680;-68
2022/12/02 09:38:31;;;;;;;16.60;13.10;;;;;;;6.48;82.24;97844.84;107809;1267;68489;-68
2022/12/02 09:41:00;;;;;;;16.10;13.00;;;;;;;6.51;82.83;97844.86;107781;1266;59804;-69
2022/12/02 09:43:30;;;;;;;38.50;24.90;;;;;;;6.63;83.17;97848.41;107927;1263;59709;-68
2022/12/02 09:45:59;;;;;;;24.50;16.60;;;;;;;6.67;82.40;97847.36;107684;1266;71993;-68
2022/12/02 09:51:09;;;;;;;20.40;15.60;;;;;;;6.57;82.50;97847.35;104391;1306;596540;-68
2022/12/02 09:53:40;;;;;;;13.70;11.40;;;;;;;6.22;81.52;97844.23;106847;1280;57740;-68
2022/12/02 09:56:16;;;;;;;15.90;12.40;;;;;;;6.22;82.72;97845.76;106857;1281;57990;-68
2022/12/02 09:58:48;;;;;;;15.00;11.70;;;;;;;6.20;82.84;97848.13;106749;1283;69848;-68
2022/12/02 10:01:18;;;;;;;14.20;11.50;;;;;;;6.16;82.41;97847.26;106816;1282;69040;-68
2022/12/02 10:03:49;;;;;;;14.80;11.70;;;;;;;6.22;83.59;97849.41;106530;1280;411060;-68
2022/12/02 10:06:23;;;;;;;17.20;13.30;;;;;;;6.17;82.97;97851.04;107190;1279;57791;-69
2022/12/02 10:08:56;;;;;;;14.80;12.70;;;;;;;6.11;82.92;97849.06;107003;1279;58007;-69
2022/12/02 10:11:27;;;;;;;16.40;13.00;;;;;;;6.13;82.41;97849.84;107084;1276;69467;-69
2022/12/02 10:13:56;;;;;;;17.70;13.40;;;;;;;6.18;82.70;97849.08;107087;1283;69981;-68
2022/12/02 10:16:28;;;;;;;16.10;13.70;;;;;;;6.13;82.37;97848.77;107163;1279;68304;-69
2022/12/02 10:19:00;;;;;;;18.20;12.20;;;;;;;6.09;83.46;97850.52;107102;1274;58129;-69
2022/12/02 10:21:29;;;;;;;16.50;12.80;;;;;;;6.14;82.89;97850.50;107699;1262;58045;-69
2022/12/02 10:24:10;;;;;;;16.90;12.90;;;;;;;5.88;82.95;97847.89;107681;1267;69752;-69
2022/12/02 10:26:50;;;;;;;18.10;13.40;;;;;;;5.92;82.98;97846.84;107656;1266;68181;-69
2022/12/02 10:29:29;;;;;;;;;;;;;;;5.83;82.90;97846.02;107666;1267;68302;-69
2022/12/02 10:32:00;;;;;;;16.10;11.50;;;;;;;5.77;82.85;97851.14;107705;1269;58385;-69
2022/12/02 10:34:31;;;;;;;14.90;10.30;;;;;;;5.87;83.64;97847.89;107695;1267;58082;-69
2022/12/02 10:37:22;;;;;;;17.90;13.40;;;;;;;5.88;83.65;97852.55;107575;1267;70293;-69
2022/12/02 10:40:20;;;;;;;15.70;12.80;;;;;;;5.78;83.91;97853.53;107745;1267;68375;-69
2022/12/02 10:43:16;;;;;;;13.90;11.20;;;;;;;5.63;82.48;97851.09;107674;1267;68461;-69
2022/12/02 10:45:57;;;;;;;18.60;13.60;;;;;;;5.63;82.02;97850.05;107751;1267;58702;-69
2022/12/02 10:48:26;;;;;;;18.00;12.80;;;;;;;5.62;82.96;97852.88;107653;1267;58160;-69
2022/12/02 10:50:55;;;;;;;16.00;12.50;;;;;;;5.64;83.77;97850.73;107628;1266;69273;-69
2022/12/02 10:53:29;;;;;;;18.20;15.90;;;;;;;5.65;82.39;97853.10;107633;1266;69808;-69
2022/12/02 10:55:57;;;;;;;19.30;13.00;;;;;;;5.58;82.23;97847.69;107647;1263;69081;-69
2022/12/02 10:58:29;;;;;;;17.60;13.10;;;;;;;5.54;82.04;97846.17;107721;1267;58081;-69
2022/12/02 11:01:00;;;;;;;18.40;13.00;;;;;;;5.53;82.17;97845.67;107732;1266;58079;-69
2022/12/02 11:03:29;;;;;;;15.10;11.70;;;;;;;5.50;81.93;97845.99;107641;1268;68653;-69
2022/12/02 11:06:01;;;;;;;15.90;12.90;;;;;;;5.46;82.65;97845.66;107627;1266;69936;-69
2022/12/02 11:08:30;;;;;;;16.30;11.90;;;;;;;5.48;82.98;97843.83;107747;1267;69288;-69
2022/12/02 11:11:36;;;;;;;15.10;12.10;;;;;;;5.49;82.52;97847.94;107738;1267;58169;-69
2022/12/02 11:14:11;;;;;;;14.80;11.60;;;;;;;5.58;82.58;97848.23;107712;1266;58144;-69
2022/12/02 11:16:40;;;;;;;15.40;11.80;;;;;;;5.58;81.88;97846.31;107726;1267;70473;-69
2022/12/02 11:19:33;;;;;;;15.00;11.10;;;;;;;5.49;82.12;97848.27;107727;1267;68051;-69
2022/12/02 11:22:02;;;;;;;14.50;10.60;;;;;;;5.42;81.88;97847.56;107738;1267;68704;-68
2022/12/02 11:24:31;;;;;;;14.40;11.50;;;;;;;5.40;82.68;97850.10;107607;1263;58178;-68
2022/12/02 11:27:02;;;;;;;15.20;11.20;;;;;;;5.40;82.45;97847.86;107647;1267;58073;-69
2022/12/02 11:29:42;;;;;;;15.90;12.00;;;;;;;5.34;82.19;97848.08;107687;1267;69798;-69
2022/12/02 11:32:17;;;;;;;17.40;11.90;;;;;;;5.34;82.42;97846.56;107702;1266;69021;-69
2022/12/02 11:34:50;;;;;;;17.50;11.50;;;;;;;5.35;82.76;97844.73;107656;1267;68443;-69
2022/12/02 11:37:41;;;;;;;15.30;11.70;;;;;;;5.38;82.74;97844.64;107720;1265;58145;-69
2022/12/02 11:40:10;;;;;;;15.70;11.90;;;;;;;5.32;83.92;97847.49;107755;1266;58089;-69
2022/12/02 11:42:42;;;;;;;13.90;10.20;;;;;;;5.31;84.19;97845.97;107687;1263;69800;-69
2022/12/02 11:45:16;;;;;;;16.60;11.70;;;;;;;5.32;83.82;97841.79;107791;1263;70189;-69